Leyden, New York
Current Conditions -  °F | °C
As of 10:53 PM on Friday 28 Nov 2014 (Local Time) from KRME Reporting Station
Light Snow Light Snow  
Wind Chill: 22°   Ceiling: 3000
Heat Index: 22°   Visibility: 3mi
Dew Point: 20°   Wind: 0mph
Humidity: 92%   Direction: NA
Pressure: 30.24"   Gusts: NA
Location:  43.6044°N, 75.2344°W
Report Text: KRME 290353Z AUTO 00000KT 3SM -SN BR OVC030 M06/M07 A3024 RMK AO2 SLP247 P0000 T10561067 TSNO
Loading
Personal Weather Stations






























Interactive Weather Map New forecast layout! Learn more

10-Day Weather Forecast

Advertisements
Track Severe Weather on mobile